Time;durP1;ratioP1;P1;durP2;ratioP2;P2;SDS_P1;SDS_P2;PMS_P1;PMS_P2;Temp;Humidity;BMP_temperature;BMP_pressure;BME280_temperature;BME280_humidity;BME280_pressure;Samples;Min_cycle;Max_cycle;Signal;HPM_P1;HPM_P2
2021/01/15 00:01:07;;;;;;;0.20;0.10;;;;;;;-0.33;100.00;100537.50;5042340;28;20548;-51
2021/01/15 00:03:38;;;;;;;0.20;0.10;;;;;;;-0.33;100.00;100535.78;5044703;28;20483;-52
2021/01/15 00:06:06;;;;;;;0.20;0.10;;;;;;;-0.32;100.00;100541.88;5047817;28;20444;-51
2021/01/15 00:08:37;;;;;;;0.20;0.10;;;;;;;-0.22;100.00;100540.31;5044917;28;20502;-52
2021/01/15 00:11:05;;;;;;;0.20;0.10;;;;;;;-0.33;99.13;100538.38;5040333;28;20816;-51
2021/01/15 00:13:32;;;;;;;0.20;0.10;;;;;;;-0.25;100.00;100532.44;5042749;28;20509;-53
2021/01/15 00:15:58;;;;;;;0.20;0.10;;;;;;;-0.30;99.18;100530.59;5047879;28;20463;-52
2021/01/15 00:18:25;;;;;;;0.20;0.10;;;;;;;-0.27;99.66;100535.03;5032946;28;20483;-52
2021/01/15 00:20:51;;;;;;;0.20;0.10;;;;;;;-0.26;99.60;100542.00;5030740;28;20478;-52
2021/01/15 00:23:17;;;;;;;0.20;0.10;;;;;;;-0.26;99.74;100542.00;5046765;28;20447;-52
2021/01/15 00:25:44;;;;;;;0.20;0.10;;;;;;;-0.32;99.71;100540.13;5046889;28;20447;-52
2021/01/15 00:28:10;;;;;;;0.20;0.10;;;;;;;-0.20;100.00;100541.22;5034592;28;20545;-52
2021/01/15 00:30:37;;;;;;;0.20;0.10;;;;;;;-0.15;100.00;100540.44;5047840;28;20513;-52
2021/01/15 00:33:04;;;;;;;0.20;0.10;;;;;;;-0.23;99.48;100541.19;5035305;28;20455;-52
2021/01/15 00:35:30;;;;;;;0.20;0.10;;;;;;;-0.18;99.12;100540.41;5053655;28;20446;-53
2021/01/15 00:37:57;;;;;;;0.20;0.10;;;;;;;-0.19;99.39;100536.03;5050100;28;21023;-52
2021/01/15 00:40:23;;;;;;;0.30;0.20;;;;;;;-0.04;100.00;100531.09;5048212;28;20448;-53
2021/01/15 00:42:49;;;;;;;0.20;0.10;;;;;;;-0.21;99.56;100532.50;5053942;28;20451;-52
2021/01/15 00:45:18;;;;;;;0.20;0.10;;;;;;;-0.19;100.00;100536.03;5050357;28;20454;-52
2021/01/15 00:47:45;;;;;;;0.20;0.10;;;;;;;-0.19;99.29;100540.38;5053643;28;20474;-52
2021/01/15 00:50:14;;;;;;;0.20;0.10;;;;;;;-0.15;98.98;100545.69;5053795;28;20536;-52
2021/01/15 00:52:41;;;;;;;0.30;0.30;;;;;;;-0.07;100.00;100546.72;5043877;28;20452;-52
2021/01/15 00:55:08;;;;;;;0.20;0.10;;;;;;;-0.11;99.44;100547.50;5057000;28;20550;-52
2021/01/15 00:57:38;;;;;;;0.20;0.10;;;;;;;-0.17;98.86;100546.50;5051980;28;20528;-51
2021/01/15 01:00:08;;;;;;;5.47;0.83;;;;;;;-0.31;98.40;100548.84;5046912;28;20791;-52
2021/01/15 01:02:36;;;;;;;0.20;0.10;;;;;;;-0.34;99.06;100554.03;5043772;28;20478;-52
2021/01/15 01:05:04;;;;;;;0.20;0.10;;;;;;;-0.33;98.83;100550.56;5047392;28;20451;-52
2021/01/15 01:07:32;;;;;;;0.20;0.10;;;;;;;-0.33;99.16;100554.06;5044654;28;20467;-52
2021/01/15 01:09:59;;;;;;;0.20;0.10;;;;;;;-0.17;100.00;100549.13;5040240;28;20516;-52
2021/01/15 01:12:25;;;;;;;0.20;0.10;;;;;;;-0.10;99.28;100553.63;5042618;28;20971;-52
2021/01/15 01:14:51;;;;;;;0.20;0.10;;;;;;;-0.09;99.37;100556.25;5047507;28;20447;-52
2021/01/15 01:17:17;;;;;;;0.20;0.10;;;;;;;-0.16;98.33;100556.97;5044684;28;20447;-52
2021/01/15 01:19:43;;;;;;;0.20;0.10;;;;;;;-0.09;98.40;100553.66;5036201;28;20436;-53
2021/01/15 01:22:10;;;;;;;0.20;0.10;;;;;;;0.05;97.91;100555.63;5047200;28;20451;-53
2021/01/15 01:24:36;;;;;;;0.20;0.10;;;;;;;0.16;98.06;100557.59;5046958;28;20463;-53
2021/01/15 01:27:02;;;;;;;0.20;0.10;;;;;;;-0.04;98.12;100570.28;5040108;28;20455;-52
2021/01/15 01:29:28;;;;;;;0.20;0.10;;;;;;;-0.14;98.62;100575.28;5040978;28;20491;-52
2021/01/15 01:31:55;;;;;;;0.20;0.10;;;;;;;-0.18;98.94;100576.97;5046981;28;20456;-52
2021/01/15 01:34:21;;;;;;;0.20;0.10;;;;;;;-0.30;99.09;100576.72;5047069;28;20579;-53
2021/01/15 01:36:47;;;;;;;0.20;0.10;;;;;;;-0.35;99.79;100587.09;5040074;28;20450;-53
2021/01/15 01:39:13;;;;;;;0.20;0.10;;;;;;;-0.32;99.91;100581.91;5041012;28;20467;-53
2021/01/15 01:41:40;;;;;;;0.20;0.13;;;;;;;-0.22;99.82;100583.00;5046823;28;20451;-53
2021/01/15 01:44:06;;;;;;;0.20;0.10;;;;;;;-0.41;99.64;100597.44;5046864;28;20451;-53
2021/01/15 01:46:32;;;;;;;0.20;0.10;;;;;;;-0.62;99.74;100596.97;5039843;28;20955;-53
2021/01/15 01:48:58;;;;;;;0.20;0.10;;;;;;;-0.83;100.00;100588.66;5040008;28;20508;-53
2021/01/15 01:51:26;;;;;;;0.20;0.10;;;;;;;-0.80;100.00;100593.97;5046821;28;20567;-52
2021/01/15 01:53:53;;;;;;;0.20;0.10;;;;;;;-1.05;100.00;100590.78;5047093;28;20455;-52
2021/01/15 01:56:19;;;;;;;0.20;0.10;;;;;;;-1.15;100.00;100598.38;5026408;28;20451;-52
2021/01/15 01:58:45;;;;;;;0.20;0.10;;;;;;;-1.26;100.00;100598.09;5039922;28;20521;-52
2021/01/15 02:01:11;;;;;;;0.20;0.10;;;;;;;-1.28;100.00;100602.41;5047334;28;20462;-52
2021/01/15 02:03:37;;;;;;;0.20;0.10;;;;;;;-1.36;100.00;100607.47;5046670;28;20832;-52
2021/01/15 02:06:04;;;;;;;0.20;0.10;;;;;;;-1.39;100.00;100603.88;5040096;28;20451;-52
2021/01/15 02:08:30;;;;;;;0.20;0.10;;;;;;;-1.50;100.00;100603.63;5053124;28;20471;-53
2021/01/15 02:11:08;;;;;;;0.20;0.10;;;;;;;-1.50;100.00;100608.84;5041097;28;20451;-52
2021/01/15 02:13:48;;;;;;;0.20;0.10;;;;;;;-1.56;100.00;100609.53;5043334;28;20477;-53
2021/01/15 02:16:21;;;;;;;0.20;0.10;;;;;;;-1.63;100.00;100612.84;5047113;28;20459;-52
2021/01/15 02:18:54;;;;;;;0.20;0.10;;;;;;;-1.69;100.00;100617.00;5043935;28;20476;-53
2021/01/15 02:21:51;;;;;;;0.20;0.10;;;;;;;-1.72;100.00;100623.03;5043037;28;20496;-52
2021/01/15 02:24:35;;;;;;;0.20;0.10;;;;;;;-1.80;100.00;100619.31;5038001;28;20442;-52
2021/01/15 02:27:30;;;;;;;0.20;0.10;;;;;;;-1.89;100.00;100626.94;5043151;28;20454;-52
2021/01/15 02:30:41;;;;;;;0.20;0.10;;;;;;;-1.89;100.00;100619.09;5043132;28;20478;-52
2021/01/15 02:33:24;;;;;;;0.20;0.10;;;;;;;-1.79;100.00;100621.09;5040704;28;20467;-52
2021/01/15 02:36:04;;;;;;;0.20;0.10;;;;;;;-1.94;100.00;100628.50;5044642;28;20455;-52
2021/01/15 02:38:51;;;;;;;0.20;0.10;;;;;;;-2.01;100.00;100619.66;5031115;28;20835;-52
2021/01/15 02:41:21;;;;;;;0.20;0.10;;;;;;;-1.97;100.00;100625.81;5042951;28;20438;-52
2021/01/15 02:43:50;;;;;;;0.20;0.10;;;;;;;-1.87;100.00;100628.72;5045927;28;20439;-53
2021/01/15 02:46:21;;;;;;;0.20;0.10;;;;;;;-2.00;100.00;100628.34;5049883;28;20561;-52
2021/01/15 02:48:51;;;;;;;0.20;0.10;;;;;;;-1.92;100.00;100632.03;5047874;28;21123;-52
2021/01/15 02:51:19;;;;;;;0.20;0.10;;;;;;;-1.65;100.00;100629.25;5042982;28;20450;-52
2021/01/15 02:53:46;;;;;;;0.20;0.10;;;;;;;-1.67;100.00;100631.84;5044266;28;20475;-53
2021/01/15 02:56:13;;;;;;;0.20;0.10;;;;;;;-1.72;100.00;100632.56;5042048;28;20442;-52
2021/01/15 02:58:40;;;;;;;0.20;0.10;;;;;;;-1.73;100.00;100623.00;5043733;28;20475;-52
2021/01/15 03:01:07;;;;;;;0.20;0.10;;;;;;;-1.73;100.00;100638.63;5050274;28;20451;-52
2021/01/15 03:04:00;;;;;;;0.20;0.10;;;;;;;-1.29;100.00;100639.75;5049780;28;20447;-52
2021/01/15 03:06:43;;;;;;;0.20;0.10;;;;;;;-1.23;100.00;100640.81;5036298;28;20447;-52
2021/01/15 03:09:10;;;;;;;0.20;0.10;;;;;;;-1.37;100.00;100644.78;5042393;28;20494;-52
2021/01/15 03:11:38;;;;;;;0.20;0.10;;;;;;;-1.03;100.00;100648.22;5043755;28;20455;-52
2021/01/15 03:14:06;;;;;;;0.20;0.10;;;;;;;-1.11;100.00;100653.22;5049221;28;20452;-52
2021/01/15 03:16:35;;;;;;;0.30;0.20;;;;;;;-0.92;100.00;100652.84;5049500;28;20862;-52
2021/01/15 03:19:02;;;;;;;0.20;0.20;;;;;;;-0.86;99.45;100656.44;5041680;28;20563;-52
2021/01/15 03:21:30;;;;;;;0.20;0.10;;;;;;;-0.55;98.51;100660.59;5046062;28;20899;-52
2021/01/15 03:24:02;;;;;;;0.20;0.10;;;;;;;-0.85;98.60;100658.19;5039326;28;20444;-52
2021/01/15 03:26:28;;;;;;;0.20;0.10;;;;;;;-0.91;99.08;100656.34;5047215;28;20459;-53
2021/01/15 03:28:54;;;;;;;0.20;0.10;;;;;;;-1.06;99.54;100654.25;5044182;28;20475;-52
2021/01/15 03:31:21;;;;;;;0.20;0.10;;;;;;;-1.04;99.78;100664.72;5053559;28;20446;-52
2021/01/15 03:33:47;;;;;;;0.20;0.10;;;;;;;-1.08;100.00;100668.09;5044780;28;20450;-52
2021/01/15 03:36:13;;;;;;;0.20;0.10;;;;;;;-1.17;100.00;100676.56;5042171;28;20456;-52
2021/01/15 03:38:39;;;;;;;0.20;0.10;;;;;;;-1.23;100.00;100671.22;5045984;28;20881;-52
2021/01/15 03:41:06;;;;;;;0.20;0.10;;;;;;;-1.37;100.00;100677.78;5046745;28;20457;-52
2021/01/15 03:43:32;;;;;;;0.20;0.10;;;;;;;-1.04;100.00;100686.47;5043932;28;20509;-53
2021/01/15 03:45:58;;;;;;;0.20;0.10;;;;;;;-1.21;100.00;100686.06;5040328;28;20455;-53
2021/01/15 03:48:26;;;;;;;0.20;0.10;;;;;;;-1.16;100.00;100693.97;5043577;28;20503;-53
2021/01/15 03:50:52;;;;;;;0.20;0.10;;;;;;;-1.31;100.00;100707.50;5033529;28;20504;-53
2021/01/15 03:53:18;;;;;;;0.20;0.10;;;;;;;-1.26;100.00;100703.28;5044646;28;20500;-53
2021/01/15 03:55:45;;;;;;;0.20;0.10;;;;;;;-1.30;100.00;100711.88;5039245;28;20447;-53
2021/01/15 03:58:12;;;;;;;0.20;0.10;;;;;;;-1.29;100.00;100721.47;5044018;28;20470;-53
2021/01/15 04:00:38;;;;;;;0.20;0.10;;;;;;;-1.11;100.00;100708.00;5041397;28;20447;-53
2021/01/15 04:03:06;;;;;;;0.20;0.10;;;;;;;-0.88;97.93;100713.78;5045646;28;20452;-53
2021/01/15 04:05:33;;;;;;;0.20;0.10;;;;;;;-0.67;96.56;100718.66;5048010;28;20891;-53
2021/01/15 04:07:59;;;;;;;0.20;0.10;;;;;;;-0.59;97.06;100717.09;5044964;28;20520;-53
2021/01/15 04:10:26;;;;;;;0.20;0.10;;;;;;;-0.64;96.61;100718.72;5040877;28;20487;-53
2021/01/15 04:12:52;;;;;;;0.20;0.10;;;;;;;-0.55;96.30;100716.31;5044665;28;20447;-53
2021/01/15 04:15:18;;;;;;;0.20;0.10;;;;;;;-0.57;97.17;100718.00;5048304;28;20535;-53
2021/01/15 04:17:45;;;;;;;0.20;0.10;;;;;;;-0.69;97.04;100721.22;5044426;28;20490;-53
2021/01/15 04:20:13;;;;;;;0.20;0.10;;;;;;;-0.76;97.16;100716.72;5028092;28;20466;-53
2021/01/15 04:22:47;;;;;;;0.20;0.10;;;;;;;-0.65;96.33;100725.69;5042768;28;20452;-53
2021/01/15 04:25:14;;;;;;;0.20;0.10;;;;;;;-0.47;95.77;100725.22;5048192;28;20502;-53
2021/01/15 04:27:42;;;;;;;0.20;0.10;;;;;;;-0.39;95.23;100726.28;5045630;28;21001;-53
2021/01/15 04:30:10;;;;;;;0.20;0.10;;;;;;;-0.35;95.19;100722.88;5040917;28;20494;-53
2021/01/15 04:32:46;;;;;;;0.20;0.10;;;;;;;-0.32;94.47;100730.78;5054520;28;20459;-52
2021/01/15 04:35:17;;;;;;;0.20;0.10;;;;;;;-0.31;94.51;100734.28;5054417;28;20449;-52
2021/01/15 04:37:43;;;;;;;0.20;0.10;;;;;;;-0.36;94.23;100735.91;5040708;28;20692;-53
2021/01/15 04:40:11;;;;;;;0.20;0.10;;;;;;;-0.42;95.00;100735.75;5045265;28;20447;-52
2021/01/15 04:42:43;;;;;;;0.20;0.10;;;;;;;-0.22;94.86;100738.81;5035790;28;20502;-52
2021/01/15 04:45:15;;;;;;;0.20;0.10;;;;;;;-0.11;94.27;100739.94;5054325;28;20450;-52
2021/01/15 04:47:43;;;;;;;0.77;0.70;;;;;;;-0.03;94.01;100746.19;5050534;28;20589;-52
2021/01/15 04:50:12;;;;;;;0.20;0.10;;;;;;;-0.22;94.63;100741.44;5043717;28;20502;-52
2021/01/15 04:52:51;;;;;;;0.20;0.10;;;;;;;-0.23;94.63;100740.56;5023219;28;20458;-52
2021/01/15 04:55:19;;;;;;;0.20;0.10;;;;;;;-0.28;95.57;100747.38;5053947;28;20445;-52
2021/01/15 04:57:48;;;;;;;0.20;0.10;;;;;;;-0.11;94.62;100746.06;5035216;28;20468;-52
2021/01/15 05:00:26;;;;;;;0.20;0.10;;;;;;;-0.22;94.91;100751.88;5046018;28;20505;-52
2021/01/15 05:02:53;;;;;;;0.20;0.10;;;;;;;-0.13;95.27;100754.72;5028345;28;20442;-52
2021/01/15 05:05:27;;;;;;;0.20;0.10;;;;;;;-0.04;95.47;100757.50;5052231;28;20963;-52
2021/01/15 05:08:08;;;;;;;0.20;0.10;;;;;;;-0.01;95.22;100754.94;5042476;28;20538;-52
2021/01/15 05:10:44;;;;;;;0.20;0.10;;;;;;;0.01;95.69;100761.13;5036076;28;20495;-52
2021/01/15 05:13:15;;;;;;;0.20;0.10;;;;;;;-0.03;96.17;100765.38;5052166;28;20494;-52
2021/01/15 05:15:49;;;;;;;0.20;0.10;;;;;;;-0.10;96.73;100763.50;5040911;28;20455;-52
2021/01/15 05:18:17;;;;;;;0.20;0.10;;;;;;;-0.03;97.40;100762.75;5048535;28;20478;-52
2021/01/15 05:20:47;;;;;;;0.20;0.10;;;;;;;-0.13;97.97;100773.88;5029618;28;20442;-53
2021/01/15 05:23:15;;;;;;;0.20;0.10;;;;;;;-0.23;98.20;100773.63;5038300;28;20447;-52
2021/01/15 05:25:44;;;;;;;0.20;0.10;;;;;;;-0.12;98.46;100777.38;5041502;28;20943;-52
2021/01/15 05:28:11;;;;;;;0.20;0.10;;;;;;;-0.35;99.00;100775.09;5033373;28;20846;-52
2021/01/15 05:30:38;;;;;;;0.20;0.10;;;;;;;-0.43;98.76;100781.88;5042368;28;20494;-53
2021/01/15 05:33:14;;;;;;;0.20;0.10;;;;;;;-0.38;99.42;100782.88;5039337;28;20448;-53
2021/01/15 05:35:44;;;;;;;0.20;0.10;;;;;;;-0.12;99.62;100779.97;5043283;28;20451;-52
2021/01/15 05:38:12;;;;;;;0.20;0.10;;;;;;;0.08;98.57;100788.25;5038212;28;20544;-53
2021/01/15 05:40:40;;;;;;;0.20;0.10;;;;;;;-0.01;97.91;100789.78;5053501;28;20447;-52
2021/01/15 05:43:07;;;;;;;0.20;0.10;;;;;;;0.17;98.29;100799.78;5035778;28;20522;-52
2021/01/15 05:45:33;;;;;;;0.20;0.10;;;;;;;0.04;97.98;100802.97;5046101;28;20862;-52
2021/01/15 05:48:00;;;;;;;0.20;0.10;;;;;;;0.08;98.01;100803.94;5039205;28;20471;-52
2021/01/15 05:50:46;;;;;;;0.20;0.10;;;;;;;0.16;97.80;100803.25;5049269;28;20540;-52
2021/01/15 05:53:12;;;;;;;0.20;0.10;;;;;;;0.16;98.61;100805.88;5033808;28;20500;-53
2021/01/15 05:55:48;;;;;;;0.20;0.10;;;;;;;0.06;99.09;100810.84;5042413;28;20483;-52
2021/01/15 05:58:14;;;;;;;0.20;0.10;;;;;;;0.07;98.57;100818.72;5046722;28;20870;-52
2021/01/15 06:00:41;;;;;;;0.20;0.10;;;;;;;0.05;99.98;100815.19;5041411;28;20451;-52
2021/01/15 06:03:08;;;;;;;0.20;0.10;;;;;;;0.04;99.69;100829.13;5047258;28;20454;-56
2021/01/15 06:05:35;;;;;;;0.20;0.10;;;;;;;0.05;100.00;100824.78;5043779;28;20947;-52
2021/01/15 06:08:03;;;;;;;0.20;0.10;;;;;;;0.12;100.00;100826.66;5047406;28;20471;-52
2021/01/15 06:10:41;;;;;;;0.20;0.10;;;;;;;0.24;99.58;100834.78;5040578;28;20491;-52
2021/01/15 06:13:07;;;;;;;0.20;0.10;;;;;;;0.32;100.00;100835.84;5048743;28;20438;-53
2021/01/15 06:15:49;;;;;;;0.20;0.10;;;;;;;0.43;100.00;100838.69;5051929;28;21168;-53
2021/01/15 06:18:17;;;;;;;0.20;0.10;;;;;;;0.49;99.38;100846.66;5048963;28;20513;-52
2021/01/15 06:20:45;;;;;;;0.20;0.10;;;;;;;0.49;99.54;100844.03;5032776;28;20935;-52
2021/01/15 06:23:12;;;;;;;0.37;0.37;;;;;;;0.42;100.00;100844.75;5043202;28;20451;-52
2021/01/15 06:25:55;;;;;;;0.20;0.10;;;;;;;0.42;100.00;100848.25;5055519;28;20794;-52
2021/01/15 06:28:31;;;;;;;0.20;0.20;;;;;;;0.39;100.00;100861.25;5044565;28;21026;-52
2021/01/15 06:30:59;;;;;;;0.20;0.10;;;;;;;0.33;100.00;100855.91;5058436;28;20997;-53
2021/01/15 06:33:25;;;;;;;0.20;0.10;;;;;;;0.42;100.00;100860.44;5051230;28;20533;-52
2021/01/15 06:35:52;;;;;;;0.20;0.10;;;;;;;0.50;100.00;100858.88;5046020;28;20460;-52
2021/01/15 06:38:19;;;;;;;0.20;0.10;;;;;;;0.37;100.00;100862.94;5055948;28;20910;-52
2021/01/15 06:40:49;;;;;;;7.50;4.33;;;;;;;0.31;100.00;100870.66;5043618;28;21002;-52
2021/01/15 06:43:29;;;;;;;0.20;0.10;;;;;;;0.41;100.00;100875.25;5050106;28;20463;-52
2021/01/15 06:45:58;;;;;;;0.67;0.67;;;;;;;0.48;100.00;100874.53;5051159;28;20932;-52
2021/01/15 06:48:33;;;;;;;0.20;0.10;;;;;;;0.55;100.00;100880.78;5047262;28;20479;-52
2021/01/15 06:51:00;;;;;;;0.20;0.10;;;;;;;0.43;100.00;100889.25;5051389;28;20489;-52
2021/01/15 06:53:29;;;;;;;0.20;0.10;;;;;;;0.45;100.00;100889.28;5036446;28;20453;-52
2021/01/15 06:55:56;;;;;;;0.20;0.10;;;;;;;0.45;100.00;100894.50;5038238;28;20447;-52
2021/01/15 06:58:26;;;;;;;0.20;0.10;;;;;;;0.55;100.00;100899.09;5045064;28;20875;-52
2021/01/15 07:01:20;;;;;;;0.20;0.10;;;;;;;0.62;100.00;100898.34;5049231;28;20455;-52
2021/01/15 07:04:14;;;;;;;1.13;1.13;;;;;;;0.61;100.00;100899.22;5036355;28;20948;-52
2021/01/15 07:06:56;;;;;;;2.70;2.50;;;;;;;0.66;100.00;100900.19;5036554;28;20864;-52
2021/01/15 07:09:27;;;;;;;0.20;0.10;;;;;;;0.64;100.00;100896.66;5030663;28;20561;-52
2021/01/15 07:11:55;;;;;;;0.20;0.10;;;;;;;0.73;100.00;100896.84;5050833;28;20439;-52
2021/01/15 07:14:27;;;;;;;0.20;0.10;;;;;;;0.77;100.00;100898.69;5055854;28;20509;-52
2021/01/15 07:16:56;;;;;;;0.20;0.10;;;;;;;0.73;100.00;100899.47;5053107;28;20447;-52
2021/01/15 07:19:56;;;;;;;0.20;0.10;;;;;;;0.79;100.00;100904.81;5026282;28;20472;-52
2021/01/15 07:22:31;;;;;;;0.20;0.10;;;;;;;0.73;100.00;100909.94;5034242;28;20485;-53
2021/01/15 07:24:59;;;;;;;0.20;0.10;;;;;;;0.78;100.00;100910.03;5056243;28;20933;-52
2021/01/15 07:27:25;;;;;;;0.20;0.10;;;;;;;0.85;99.09;100917.16;5043874;28;20483;-52
2021/01/15 07:29:51;;;;;;;0.20;0.10;;;;;;;0.83;99.03;100924.09;5049527;28;20489;-52
2021/01/15 07:32:24;;;;;;;0.20;0.10;;;;;;;0.83;98.99;100922.38;5036114;28;20459;-51
2021/01/15 07:34:55;;;;;;;0.20;0.10;;;;;;;0.88;99.18;100932.91;5048977;28;20941;-52
2021/01/15 07:37:26;;;;;;;0.20;0.10;;;;;;;0.97;98.08;100933.13;5046729;28;20439;-52
2021/01/15 07:40:07;;;;;;;0.20;0.10;;;;;;;0.86;99.01;100943.34;5040769;28;20516;-51
2021/01/15 07:42:40;;;;;;;0.20;0.10;;;;;;;0.95;97.68;100947.00;5042309;28;20793;-51
2021/01/15 07:45:07;;;;;;;0.20;0.10;;;;;;;0.83;98.02;100950.28;5031140;28;20504;-51
2021/01/15 07:47:37;;;;;;;0.20;0.10;;;;;;;0.91;98.27;100946.06;5041591;28;20927;-52
2021/01/15 07:50:05;;;;;;;0.20;0.10;;;;;;;1.01;96.27;100949.75;5045531;28;20494;-52
2021/01/15 07:52:33;;;;;;;0.20;0.10;;;;;;;1.08;95.22;100956.88;5048342;28;20451;-52
2021/01/15 07:55:00;;;;;;;0.20;0.10;;;;;;;0.86;96.05;100966.91;5044626;28;20451;-51
2021/01/15 07:57:29;;;;;;;0.20;0.10;;;;;;;0.89;95.87;100959.13;5041586;28;20475;-53
2021/01/15 07:59:55;;;;;;;0.20;0.10;;;;;;;1.07;96.26;100968.19;5055445;28;20435;-52
2021/01/15 08:02:21;;;;;;;0.20;0.10;;;;;;;1.06;94.94;100967.31;5041635;28;20451;-51
2021/01/15 08:04:49;;;;;;;0.20;0.10;;;;;;;1.03;94.88;100972.50;5044932;28;20941;-52
2021/01/15 08:07:26;;;;;;;0.20;0.10;;;;;;;1.06;93.65;100976.91;5048396;28;20809;-51
2021/01/15 08:09:52;;;;;;;0.20;0.10;;;;;;;1.03;94.24;100982.09;5045070;28;21073;-52
2021/01/15 08:12:18;;;;;;;0.20;0.10;;;;;;;1.06;92.99;100979.53;5042515;28;20772;-52
2021/01/15 08:14:44;;;;;;;0.20;0.10;;;;;;;0.98;93.18;100981.13;5044240;28;20460;-52
2021/01/15 08:17:11;;;;;;;0.20;0.10;;;;;;;1.15;92.93;100985.84;5043550;28;20448;-52
2021/01/15 08:19:41;;;;;;;0.20;0.10;;;;;;;1.22;92.64;100985.94;5015057;28;20952;-52
2021/01/15 08:22:13;;;;;;;0.20;0.10;;;;;;;1.14;92.07;100991.94;5046217;28;20498;-52
2021/01/15 08:24:44;;;;;;;0.20;0.10;;;;;;;1.07;91.89;100991.75;5048698;28;20446;-53
2021/01/15 08:27:16;;;;;;;0.20;0.10;;;;;;;1.21;91.05;100995.53;5042300;28;20457;-52
2021/01/15 08:29:42;;;;;;;0.20;0.10;;;;;;;1.28;91.52;101000.06;5041368;28;20515;-52
2021/01/15 08:32:08;;;;;;;0.20;0.10;;;;;;;1.37;89.93;101005.50;5046055;28;20448;-52
2021/01/15 08:34:36;;;;;;;0.20;0.10;;;;;;;1.34;87.34;101001.91;5048221;28;20540;-52
2021/01/15 08:37:04;;;;;;;0.20;0.10;;;;;;;1.29;88.79;101016.66;5042872;28;20462;-52
2021/01/15 08:39:47;;;;;;;0.20;0.10;;;;;;;1.48;88.12;101014.44;5040391;28;20444;-51
2021/01/15 08:42:14;;;;;;;0.20;0.10;;;;;;;1.57;87.17;101021.59;5043132;28;20859;-52
2021/01/15 08:44:41;;;;;;;0.20;0.10;;;;;;;1.54;87.41;101024.16;5047576;28;20444;-52
2021/01/15 08:47:10;;;;;;;0.20;0.10;;;;;;;1.66;86.73;101026.16;5046572;28;20496;-52
2021/01/15 08:49:37;;;;;;;0.20;0.10;;;;;;;1.72;86.58;101024.50;5040802;28;20853;-53
2021/01/15 08:52:04;;;;;;;0.20;0.10;;;;;;;1.84;85.76;101033.47;5042771;28;20455;-52
2021/01/15 08:54:32;;;;;;;0.20;0.10;;;;;;;1.75;85.36;101039.41;5047076;28;20867;-52
2021/01/15 08:57:00;;;;;;;0.20;0.10;;;;;;;1.85;85.22;101033.50;5046849;28;20446;-52
2021/01/15 08:59:30;;;;;;;0.20;0.10;;;;;;;1.74;84.52;101041.16;5040636;28;20538;-51
2021/01/15 09:02:06;;;;;;;0.20;0.10;;;;;;;1.59;84.94;101045.19;5040433;28;20459;-53
2021/01/15 09:04:34;;;;;;;0.20;0.10;;;;;;;1.69;84.91;101047.16;5045283;28;20448;-51
2021/01/15 09:07:02;;;;;;;0.20;0.10;;;;;;;1.79;85.09;101049.13;5047117;28;20828;-51
2021/01/15 09:09:30;;;;;;;0.20;0.10;;;;;;;1.77;84.80;101054.28;5041937;28;20467;-52
2021/01/15 09:12:01;;;;;;;0.20;0.10;;;;;;;1.95;84.84;101055.53;5042389;28;20502;-52
2021/01/15 09:14:27;;;;;;;0.20;0.10;;;;;;;1.89;83.06;101065.88;5043343;28;20455;-52
2021/01/15 09:16:55;;;;;;;0.20;0.10;;;;;;;1.86;82.47;101061.47;5046693;28;20452;-52
2021/01/15 09:19:22;;;;;;;0.20;0.10;;;;;;;1.71;83.54;101066.41;5023368;28;20480;-52
2021/01/15 09:22:01;;;;;;;0.20;0.10;;;;;;;1.92;84.23;101065.94;5043664;28;20451;-52
2021/01/15 09:24:34;;;;;;;0.20;0.10;;;;;;;1.88;81.61;101074.59;5044914;28;20443;-52
2021/01/15 09:27:10;;;;;;;0.20;0.10;;;;;;;2.04;83.45;101068.78;5040734;28;20454;-52
2021/01/15 09:29:38;;;;;;;0.20;0.10;;;;;;;2.07;82.45;101076.72;5039809;28;20840;-52
2021/01/15 09:32:04;;;;;;;0.20;0.10;;;;;;;2.09;83.19;101075.00;5045651;28;20447;-52
2021/01/15 09:34:31;;;;;;;0.20;0.10;;;;;;;2.02;83.53;101076.63;5045335;28;20478;-51
2021/01/15 09:36:58;;;;;;;0.20;0.10;;;;;;;2.18;83.19;101082.16;5040565;28;20451;-52
2021/01/15 09:39:26;;;;;;;0.20;0.10;;;;;;;2.22;82.64;101087.50;5051726;28;20516;-52
2021/01/15 09:41:54;;;;;;;0.20;0.20;;;;;;;2.27;83.24;101100.69;5033522;28;20451;-52
2021/01/15 09:44:23;;;;;;;0.20;0.10;;;;;;;2.37;83.36;101103.50;5046555;28;20538;-51
2021/01/15 09:46:55;;;;;;;0.20;0.10;;;;;;;2.50;82.10;101116.84;5043287;28;20447;-52
2021/01/15 09:49:22;;;;;;;0.20;0.10;;;;;;;2.51;81.05;101114.25;5033731;28;20478;-58
2021/01/15 09:51:50;;;;;;;0.20;0.10;;;;;;;2.64;81.52;101108.34;5041201;28;20450;-52
2021/01/15 09:54:17;;;;;;;0.20;0.10;;;;;;;2.63;80.80;101122.31;5039306;28;20861;-52
2021/01/15 09:56:44;;;;;;;0.20;0.10;;;;;;;2.39;80.98;101116.63;5041695;28;20550;-51
2021/01/15 09:59:13;;;;;;;0.20;0.10;;;;;;;2.36;81.21;101124.47;5046279;28;20475;-52
2021/01/15 10:01:39;;;;;;;1.67;1.67;;;;;;;2.46;81.20;101121.13;5043607;28;20496;-52
2021/01/15 10:04:06;;;;;;;0.20;0.13;;;;;;;2.49;81.74;101125.56;5034816;28;20451;-52
2021/01/15 10:06:37;;;;;;;0.20;0.10;;;;;;;2.37;80.76;101134.09;5044702;28;20447;-52
2021/01/15 10:09:04;;;;;;;0.20;0.10;;;;;;;2.56;81.24;101130.06;5038687;28;20819;-51
2021/01/15 10:11:33;;;;;;;0.20;0.10;;;;;;;2.55;81.30;101130.91;5040268;28;20491;-52
2021/01/15 10:14:02;;;;;;;0.20;0.10;;;;;;;2.56;81.47;101124.81;5046371;28;20521;-52
2021/01/15 10:16:28;;;;;;;0.20;0.20;;;;;;;2.53;81.44;101135.25;5046087;28;20500;-52
2021/01/15 10:18:56;;;;;;;0.20;0.10;;;;;;;2.52;81.19;101129.13;5046189;28;20581;-52
2021/01/15 10:21:24;;;;;;;0.20;0.10;;;;;;;2.66;81.66;101131.97;5046341;28;20451;-52
2021/01/15 10:23:51;;;;;;;0.20;0.10;;;;;;;2.57;80.27;101143.19;5025538;28;20948;-52
2021/01/15 10:26:27;;;;;;;0.20;0.10;;;;;;;2.56;79.93;101135.28;5034324;28;20464;-52
2021/01/15 10:28:58;;;;;;;0.20;0.10;;;;;;;2.68;79.88;101133.78;5041923;28;20488;-52
2021/01/15 10:31:29;;;;;;;0.20;0.10;;;;;;;2.86;80.43;101142.81;5039173;28;20884;-52
2021/01/15 10:33:57;;;;;;;0.20;0.10;;;;;;;2.72;80.26;101139.94;5051450;28;20470;-52
2021/01/15 10:36:27;;;;;;;0.20;0.10;;;;;;;2.86;79.57;101140.19;5055828;28;20952;-54
2021/01/15 10:38:54;;;;;;;0.20;0.10;;;;;;;2.84;79.63;101144.53;5047843;28;20474;-54
2021/01/15 10:41:32;;;;;;;0.20;0.10;;;;;;;2.92;79.36;101140.28;5042438;28;20443;-54
2021/01/15 10:44:00;;;;;;;0.20;0.10;;;;;;;3.03;79.06;101140.47;5044694;28;20852;-54
2021/01/15 10:46:47;;;;;;;0.20;0.10;;;;;;;2.88;78.09;101147.25;5050606;28;20454;-54
2021/01/15 10:49:16;;;;;;;0.20;0.10;;;;;;;2.91;78.79;101151.66;5052625;28;20545;-54
2021/01/15 10:51:49;;;;;;;0.20;0.10;;;;;;;2.79;78.02;101152.34;5047269;28;20541;-53
2021/01/15 10:54:16;;;;;;;0.20;0.10;;;;;;;2.83;77.22;101146.25;5049943;28;20968;-54
2021/01/15 10:56:45;;;;;;;0.20;0.10;;;;;;;2.82;76.50;101148.88;5046742;28;20454;-53
2021/01/15 10:59:12;;;;;;;0.20;0.10;;;;;;;3.01;77.09;101137.78;5042838;28;20474;-54
2021/01/15 11:01:40;;;;;;;0.23;0.10;;;;;;;3.00;77.47;101154.41;5044843;28;20827;-54
2021/01/15 11:04:07;;;;;;;0.20;0.10;;;;;;;2.95;77.30;101148.22;5049595;28;20492;-53
2021/01/15 11:06:39;;;;;;;0.20;0.10;;;;;;;2.95;76.97;101156.97;5047973;28;20461;-54
2021/01/15 11:09:07;;;;;;;0.20;0.10;;;;;;;2.87;77.25;101150.69;5036698;28;20518;-53
2021/01/15 11:11:56;;;;;;;0.20;0.10;;;;;;;2.91;78.02;101149.03;5049167;28;20538;-54
2021/01/15 11:14:23;;;;;;;0.20;0.10;;;;;;;3.07;78.29;101148.41;5045373;28;20451;-53
2021/01/15 11:16:49;;;;;;;0.20;0.10;;;;;;;3.01;77.38;101155.28;5053204;28;20446;-54
2021/01/15 11:19:15;;;;;;;0.20;0.20;;;;;;;3.05;76.34;101162.38;5026504;28;20484;-54
2021/01/15 11:21:41;;;;;;;0.20;0.10;;;;;;;3.39;76.35;101158.50;5045088;28;20481;-53
2021/01/15 11:24:09;;;;;;;0.20;0.10;;;;;;;3.32;76.63;101159.31;5044505;28;20500;-54
2021/01/15 11:26:35;;;;;;;0.20;0.10;;;;;;;3.46;76.37;101163.00;5034664;28;20468;-54
2021/01/15 11:29:04;;;;;;;0.20;0.10;;;;;;;3.62;77.36;101165.00;5043266;28;20466;-53
2021/01/15 11:31:30;;;;;;;0.20;0.10;;;;;;;3.60;75.18;101157.94;5041723;28;20502;-54
2021/01/15 11:33:57;;;;;;;0.20;0.10;;;;;;;3.57;75.63;101156.16;5055507;28;20572;-54
2021/01/15 11:36:23;;;;;;;0.20;0.10;;;;;;;3.47;74.13;101162.16;5042308;28;20446;-54
2021/01/15 11:38:50;;;;;;;0.20;0.10;;;;;;;3.61;75.43;101163.22;5045237;28;20824;-54